sensor_id;sensor_type;location;lat;lon;timestamp;pressure;altitude;pressure_sealevel;temperature;humidity
76054;BME280;64752;48.870;9.082;2022-11-15T00:31:16;97891.09;;;10.26;74.26
76054;BME280;64752;48.870;9.082;2022-11-15T00:33:43;97898.22;;;10.19;74.99
76054;BME280;64752;48.870;9.082;2022-11-15T00:36:09;97898.81;;;10.28;73.95
76054;BME280;64752;48.870;9.082;2022-11-15T00:38:35;97902.44;;;10.47;72.34
76054;BME280;64752;48.870;9.082;2022-11-15T00:41:02;97893.81;;;10.47;72.59
76054;BME280;64752;48.870;9.082;2022-11-15T00:43:27;97899.28;;;10.39;73.46
76054;BME280;64752;48.870;9.082;2022-11-15T00:45:53;97891.91;;;10.27;73.65
76054;BME280;64752;48.870;9.082;2022-11-15T00:48:18;97900.44;;;10.30;73.22
76054;BME280;64752;48.870;9.082;2022-11-15T00:50:43;97892.63;;;10.32;72.95
76054;BME280;64752;48.870;9.082;2022-11-15T00:53:10;97885.63;;;10.09;74.87
76054;BME280;64752;48.870;9.082;2022-11-15T00:55:36;97885.88;;;10.02;74.00
76054;BME280;64752;48.870;9.082;2022-11-15T00:58:01;97879.16;;;9.97;74.37
76054;BME280;64752;48.870;9.082;2022-11-15T01:00:27;97880.94;;;9.95;74.01
76054;BME280;64752;48.870;9.082;2022-11-15T01:02:53;97875.66;;;9.73;74.97
76054;BME280;64752;48.870;9.082;2022-11-15T01:05:18;97869.78;;;9.68;75.50
76054;BME280;64752;48.870;9.082;2022-11-15T01:07:43;97874.66;;;9.50;76.44
76054;BME280;64752;48.870;9.082;2022-11-15T01:10:09;97868.50;;;9.27;77.22
76054;BME280;64752;48.870;9.082;2022-11-15T01:12:34;97867.28;;;9.11;77.95
76054;BME280;64752;48.870;9.082;2022-11-15T01:14:59;97864.06;;;9.04;78.03
76054;BME280;64752;48.870;9.082;2022-11-15T01:17:25;97867.22;;;8.86;78.62
76054;BME280;64752;48.870;9.082;2022-11-15T01:19:50;97870.28;;;8.69;79.38
76054;BME280;64752;48.870;9.082;2022-11-15T01:22:16;97859.63;;;8.80;79.15
76054;BME280;64752;48.870;9.082;2022-11-15T01:24:41;97868.34;;;8.77;80.05
76054;BME280;64752;48.870;9.082;2022-11-15T01:27:07;97857.56;;;8.63;80.05
76054;BME280;64752;48.870;9.082;2022-11-15T01:29:33;97858.25;;;8.70;79.65
76054;BME280;64752;48.870;9.082;2022-11-15T01:31:58;97857.28;;;8.72;79.31
76054;BME280;64752;48.870;9.082;2022-11-15T01:34:23;97859.44;;;8.58;79.80
76054;BME280;64752;48.870;9.082;2022-11-15T01:36:49;97858.56;;;8.59;79.88
76054;BME280;64752;48.870;9.082;2022-11-15T01:39:14;97852.44;;;8.61;80.42
76054;BME280;64752;48.870;9.082;2022-11-15T01:41:43;97855.53;;;8.44;80.15
76054;BME280;64752;48.870;9.082;2022-11-15T01:46:56;97850.09;;;8.22;81.99
76054;BME280;64752;48.870;9.082;2022-11-15T01:49:22;97856.34;;;8.14;82.36
76054;BME280;64752;48.870;9.082;2022-11-15T01:51:48;97855.75;;;8.04;82.40
76054;BME280;64752;48.870;9.082;2022-11-15T01:54:16;97855.72;;;8.05;82.43
76054;BME280;64752;48.870;9.082;2022-11-15T01:56:48;97849.88;;;7.99;82.80
76054;BME280;64752;48.870;9.082;2022-11-15T01:59:15;97847.25;;;8.00;82.65
76054;BME280;64752;48.870;9.082;2022-11-15T02:01:41;97847.94;;;8.07;82.54
76054;BME280;64752;48.870;9.082;2022-11-15T02:04:12;97845.25;;;8.10;82.07
76054;BME280;64752;48.870;9.082;2022-11-15T02:06:39;97848.84;;;8.04;82.87
76054;BME280;64752;48.870;9.082;2022-11-15T02:09:05;97844.63;;;8.02;82.84
76054;BME280;64752;48.870;9.082;2022-11-15T02:11:31;97841.19;;;8.01;82.81
76054;BME280;64752;48.870;9.082;2022-11-15T02:13:58;97846.19;;;8.07;82.79
76054;BME280;64752;48.870;9.082;2022-11-15T02:20:11;97834.34;;;8.00;83.48
76054;BME280;64752;48.870;9.082;2022-11-15T02:25:00;97834.38;;;7.99;83.45
76054;BME280;64752;48.870;9.082;2022-11-15T02:30:23;97830.16;;;7.96;83.39
76054;BME280;64752;48.870;9.082;2022-11-15T02:32:53;97817.16;;;7.99;83.58
76054;BME280;64752;48.870;9.082;2022-11-15T02:38:18;97806.22;;;8.51;81.22
76054;BME280;64752;48.870;9.082;2022-11-15T02:40:57;97802.63;;;8.56;80.49
76054;BME280;64752;48.870;9.082;2022-11-15T02:43:28;97809.34;;;8.62;81.16
76054;BME280;64752;48.870;9.082;2022-11-15T02:46:18;97801.69;;;8.59;80.94
76054;BME280;64752;48.870;9.082;2022-11-15T02:48:48;97799.81;;;8.64;80.43
76054;BME280;64752;48.870;9.082;2022-11-15T02:51:14;97801.50;;;8.65;80.41
76054;BME280;64752;48.870;9.082;2022-11-15T02:53:40;97798.06;;;8.64;80.63
76054;BME280;64752;48.870;9.082;2022-11-15T02:56:09;97791.53;;;8.53;81.41
76054;BME280;64752;48.870;9.082;2022-11-15T03:04:41;97776.72;;;8.86;80.42
76054;BME280;64752;48.870;9.082;2022-11-15T03:09:55;97783.50;;;8.62;81.67
76054;BME280;64752;48.870;9.082;2022-11-15T03:12:27;97779.72;;;8.45;81.66
76054;BME280;64752;48.870;9.082;2022-11-15T03:14:57;97774.06;;;8.31;82.18
76054;BME280;64752;48.870;9.082;2022-11-15T03:17:29;97772.19;;;8.36;82.32
76054;BME280;64752;48.870;9.082;2022-11-15T03:20:01;97765.34;;;8.35;82.58
76054;BME280;64752;48.870;9.082;2022-11-15T03:22:33;97773.44;;;8.23;82.48
76054;BME280;64752;48.870;9.082;2022-11-15T03:25:03;97769.22;;;8.20;83.61
76054;BME280;64752;48.870;9.082;2022-11-15T03:27:35;97761.56;;;8.17;82.75
76054;BME280;64752;48.870;9.082;2022-11-15T03:30:05;97768.53;;;8.14;83.72
76054;BME280;64752;48.870;9.082;2022-11-15T03:32:35;97758.22;;;8.14;83.38
76054;BME280;64752;48.870;9.082;2022-11-15T03:35:06;97769.31;;;8.17;83.52
76054;BME280;64752;48.870;9.082;2022-11-15T03:40:04;97757.91;;;7.95;83.39
76054;BME280;64752;48.870;9.082;2022-11-15T03:45:23;97752.84;;;7.90;83.65
76054;BME280;64752;48.870;9.082;2022-11-15T03:47:59;97745.50;;;7.78;84.29
76054;BME280;64752;48.870;9.082;2022-11-15T03:50:27;97748.59;;;7.89;83.85
76054;BME280;64752;48.870;9.082;2022-11-15T03:52:54;97747.97;;;7.81;83.96
76054;BME280;64752;48.870;9.082;2022-11-15T03:55:20;97744.31;;;7.88;83.87
76054;BME280;64752;48.870;9.082;2022-11-15T03:57:48;97747.63;;;7.93;84.98
76054;BME280;64752;48.870;9.082;2022-11-15T04:00:15;97744.81;;;8.01;85.72
76054;BME280;64752;48.870;9.082;2022-11-15T04:02:41;97743.16;;;8.28;82.37
76054;BME280;64752;48.870;9.082;2022-11-15T04:05:06;97751.63;;;8.61;80.53
76054;BME280;64752;48.870;9.082;2022-11-15T04:07:32;97743.78;;;8.64;80.86
76054;BME280;64752;48.870;9.082;2022-11-15T04:09:57;97748.06;;;8.65;80.88
76054;BME280;64752;48.870;9.082;2022-11-15T04:12:36;97753.50;;;8.84;79.62
76054;BME280;64752;48.870;9.082;2022-11-15T04:17:34;97745.25;;;8.73;79.77
76054;BME280;64752;48.870;9.082;2022-11-15T04:20:01;97741.00;;;8.71;79.88
76054;BME280;64752;48.870;9.082;2022-11-15T04:22:45;97737.84;;;8.62;80.38
76054;BME280;64752;48.870;9.082;2022-11-15T04:25:29;97738.63;;;8.64;80.38
76054;BME280;64752;48.870;9.082;2022-11-15T04:27:54;97739.13;;;8.76;81.02
76054;BME280;64752;48.870;9.082;2022-11-15T04:30:19;97742.06;;;8.92;79.17
76054;BME280;64752;48.870;9.082;2022-11-15T04:32:45;97736.44;;;8.79;80.22
76054;BME280;64752;48.870;9.082;2022-11-15T04:35:10;97736.09;;;8.90;79.60
76054;BME280;64752;48.870;9.082;2022-11-15T04:37:38;97733.56;;;8.88;79.82
76054;BME280;64752;48.870;9.082;2022-11-15T04:40:04;97725.19;;;8.80;80.47
76054;BME280;64752;48.870;9.082;2022-11-15T04:42:29;97720.28;;;8.72;80.75
76054;BME280;64752;48.870;9.082;2022-11-15T04:44:55;97726.34;;;8.71;80.57
76054;BME280;64752;48.870;9.082;2022-11-15T04:47:21;97719.50;;;8.70;80.96
76054;BME280;64752;48.870;9.082;2022-11-15T04:49:46;97721.22;;;8.96;80.60
76054;BME280;64752;48.870;9.082;2022-11-15T04:52:11;97714.72;;;8.84;80.87
76054;BME280;64752;48.870;9.082;2022-11-15T04:54:37;97718.66;;;8.70;81.00
76054;BME280;64752;48.870;9.082;2022-11-15T04:57:02;97716.38;;;8.60;81.88
76054;BME280;64752;48.870;9.082;2022-11-15T04:59:28;97715.44;;;8.61;81.43
76054;BME280;64752;48.870;9.082;2022-11-15T05:01:53;97713.13;;;8.54;82.80
76054;BME280;64752;48.870;9.082;2022-11-15T05:04:19;97707.78;;;8.30;82.63
76054;BME280;64752;48.870;9.082;2022-11-15T05:06:48;97710.72;;;8.18;83.55
76054;BME280;64752;48.870;9.082;2022-11-15T05:09:15;97706.59;;;8.12;83.43
76054;BME280;64752;48.870;9.082;2022-11-15T05:11:41;97709.84;;;8.19;83.83
76054;BME280;64752;48.870;9.082;2022-11-15T05:14:06;97706.03;;;8.30;82.91
76054;BME280;64752;48.870;9.082;2022-11-15T05:16:32;97705.63;;;8.46;83.01
76054;BME280;64752;48.870;9.082;2022-11-15T05:18:57;97702.00;;;8.52;83.42
76054;BME280;64752;48.870;9.082;2022-11-15T05:21:23;97696.13;;;8.46;82.76
76054;BME280;64752;48.870;9.082;2022-11-15T05:23:49;97698.16;;;8.35;84.01
76054;BME280;64752;48.870;9.082;2022-11-15T05:26:16;97687.88;;;8.34;84.48
76054;BME280;64752;48.870;9.082;2022-11-15T05:28:42;97690.16;;;8.44;83.01
76054;BME280;64752;48.870;9.082;2022-11-15T05:31:10;97701.00;;;8.56;81.91
76054;BME280;64752;48.870;9.082;2022-11-15T05:33:38;97692.53;;;8.51;82.76
76054;BME280;64752;48.870;9.082;2022-11-15T05:36:13;97688.31;;;8.48;81.75
76054;BME280;64752;48.870;9.082;2022-11-15T05:38:43;97686.47;;;8.52;81.43
76054;BME280;64752;48.870;9.082;2022-11-15T05:41:09;97682.66;;;8.63;81.07
76054;BME280;64752;48.870;9.082;2022-11-15T05:43:36;97679.22;;;8.63;81.28
76054;BME280;64752;48.870;9.082;2022-11-15T05:46:04;97681.81;;;8.63;81.40
76054;BME280;64752;48.870;9.082;2022-11-15T05:48:30;97684.59;;;8.57;81.55
76054;BME280;64752;48.870;9.082;2022-11-15T05:50:56;97679.53;;;8.54;81.79
76054;BME280;64752;48.870;9.082;2022-11-15T05:53:23;97683.19;;;8.46;81.74
76054;BME280;64752;48.870;9.082;2022-11-15T05:55:50;97674.75;;;8.40;82.33
76054;BME280;64752;48.870;9.082;2022-11-15T05:58:16;97676.47;;;8.41;82.63
76054;BME280;64752;48.870;9.082;2022-11-15T06:00:42;97681.44;;;8.47;81.51
76054;BME280;64752;48.870;9.082;2022-11-15T06:03:08;97680.97;;;8.62;81.05
76054;BME280;64752;48.870;9.082;2022-11-15T06:05:34;97675.00;;;8.60;81.38
76054;BME280;64752;48.870;9.082;2022-11-15T06:08:00;97680.75;;;8.68;80.27
76054;BME280;64752;48.870;9.082;2022-11-15T06:10:26;97677.19;;;8.73;80.43
76054;BME280;64752;48.870;9.082;2022-11-15T06:12:58;97684.31;;;8.66;81.84
76054;BME280;64752;48.870;9.082;2022-11-15T06:15:24;97678.94;;;8.72;81.02
76054;BME280;64752;48.870;9.082;2022-11-15T06:17:49;97685.94;;;8.68;81.45
76054;BME280;64752;48.870;9.082;2022-11-15T06:20:15;97687.78;;;8.65;80.92
76054;BME280;64752;48.870;9.082;2022-11-15T06:22:40;97684.47;;;8.60;82.08
76054;BME280;64752;48.870;9.082;2022-11-15T06:25:06;97689.66;;;8.60;81.89
76054;BME280;64752;48.870;9.082;2022-11-15T06:27:31;97685.97;;;8.67;81.73
76054;BME280;64752;48.870;9.082;2022-11-15T06:29:56;97688.38;;;8.73;81.06
76054;BME280;64752;48.870;9.082;2022-11-15T06:32:22;97686.88;;;8.66;81.24
76054;BME280;64752;48.870;9.082;2022-11-15T06:34:47;97679.81;;;8.71;80.95
76054;BME280;64752;48.870;9.082;2022-11-15T06:37:12;97680.41;;;8.79;81.15
76054;BME280;64752;48.870;9.082;2022-11-15T06:39:38;97689.91;;;8.79;80.38
76054;BME280;64752;48.870;9.082;2022-11-15T06:42:03;97689.66;;;8.86;80.32
76054;BME280;64752;48.870;9.082;2022-11-15T06:44:28;97690.72;;;9.06;80.39
76054;BME280;64752;48.870;9.082;2022-11-15T06:46:53;97693.09;;;9.12;80.42
76054;BME280;64752;48.870;9.082;2022-11-15T06:49:19;97697.69;;;9.29;79.81
76054;BME280;64752;48.870;9.082;2022-11-15T06:51:44;97699.91;;;9.40;79.17
76054;BME280;64752;48.870;9.082;2022-11-15T06:54:09;97700.75;;;9.40;79.41
76054;BME280;64752;48.870;9.082;2022-11-15T06:56:35;97701.72;;;9.38;78.73
76054;BME280;64752;48.870;9.082;2022-11-15T06:59:00;97699.84;;;9.41;78.99
76054;BME280;64752;48.870;9.082;2022-11-15T07:01:25;97703.06;;;9.48;78.27
76054;BME280;64752;48.870;9.082;2022-11-15T07:03:51;97705.63;;;9.48;78.65
76054;BME280;64752;48.870;9.082;2022-11-15T07:06:16;97706.28;;;9.55;78.54
76054;BME280;64752;48.870;9.082;2022-11-15T07:08:41;97705.44;;;9.54;78.89
76054;BME280;64752;48.870;9.082;2022-11-15T07:11:08;97710.63;;;9.54;78.71
76054;BME280;64752;48.870;9.082;2022-11-15T07:13:35;97712.75;;;9.67;78.59
76054;BME280;64752;48.870;9.082;2022-11-15T07:16:05;97709.63;;;9.82;77.97
76054;BME280;64752;48.870;9.082;2022-11-15T07:18:37;97717.94;;;9.90;77.78
76054;BME280;64752;48.870;9.082;2022-11-15T07:21:04;97715.56;;;10.08;77.16
76054;BME280;64752;48.870;9.082;2022-11-15T07:23:30;97711.94;;;10.35;76.87
76054;BME280;64752;48.870;9.082;2022-11-15T07:25:57;97710.38;;;10.53;75.75
76054;BME280;64752;48.870;9.082;2022-11-15T07:28:24;97704.81;;;10.85;75.17
76054;BME280;64752;48.870;9.082;2022-11-15T07:30:49;97706.63;;;11.03;73.73
76054;BME280;64752;48.870;9.082;2022-11-15T07:33:15;97703.06;;;11.26;73.46
76054;BME280;64752;48.870;9.082;2022-11-15T07:35:41;97699.53;;;11.48;72.36
76054;BME280;64752;48.870;9.082;2022-11-15T07:38:07;97691.69;;;11.49;72.43
76054;BME280;64752;48.870;9.082;2022-11-15T07:40:33;97688.69;;;11.58;71.51
76054;BME280;64752;48.870;9.082;2022-11-15T07:43:04;97688.91;;;11.73;71.79
76054;BME280;64752;48.870;9.082;2022-11-15T07:45:30;97697.41;;;11.76;71.48
76054;BME280;64752;48.870;9.082;2022-11-15T07:47:55;97688.94;;;11.92;70.12
76054;BME280;64752;48.870;9.082;2022-11-15T07:50:22;97687.78;;;11.79;70.28
76054;BME280;64752;48.870;9.082;2022-11-15T07:52:56;97686.41;;;11.90;70.72
76054;BME280;64752;48.870;9.082;2022-11-15T07:55:22;97686.34;;;12.11;69.04
76054;BME280;64752;48.870;9.082;2022-11-15T07:57:51;97688.03;;;12.12;69.89
76054;BME280;64752;48.870;9.082;2022-11-15T08:00:17;97680.09;;;11.96;69.86
76054;BME280;64752;48.870;9.082;2022-11-15T08:02:42;97679.53;;;12.08;69.29
76054;BME280;64752;48.870;9.082;2022-11-15T08:05:08;97669.91;;;12.10;69.80
76054;BME280;64752;48.870;9.082;2022-11-15T08:07:34;97681.72;;;12.35;68.66
76054;BME280;64752;48.870;9.082;2022-11-15T08:09:59;97671.53;;;12.49;68.01
76054;BME280;64752;48.870;9.082;2022-11-15T08:12:28;97673.34;;;12.47;68.02
76054;BME280;64752;48.870;9.082;2022-11-15T08:14:54;97678.66;;;12.63;68.30
76054;BME280;64752;48.870;9.082;2022-11-15T08:17:20;97677.72;;;12.64;68.57
76054;BME280;64752;48.870;9.082;2022-11-15T08:19:46;97671.03;;;12.78;66.74
76054;BME280;64752;48.870;9.082;2022-11-15T08:22:11;97668.13;;;13.36;65.48
76054;BME280;64752;48.870;9.082;2022-11-15T08:24:37;97668.97;;;14.02;63.16
76054;BME280;64752;48.870;9.082;2022-11-15T08:27:03;97657.81;;;15.37;58.82
76054;BME280;64752;48.870;9.082;2022-11-15T08:29:28;97658.94;;;16.05;57.04
76054;BME280;64752;48.870;9.082;2022-11-15T08:31:55;97651.72;;;16.35;54.92
76054;BME280;64752;48.870;9.082;2022-11-15T08:34:21;97658.94;;;16.32;55.63
76054;BME280;64752;48.870;9.082;2022-11-15T08:36:47;97652.28;;;17.21;53.47
76054;BME280;64752;48.870;9.082;2022-11-15T08:39:12;97644.56;;;17.82;50.98
76054;BME280;64752;48.870;9.082;2022-11-15T08:41:38;97637.97;;;18.26;49.96
76054;BME280;64752;48.870;9.082;2022-11-15T08:44:04;97636.22;;;19.44;47.06
76054;BME280;64752;48.870;9.082;2022-11-15T08:46:29;97633.16;;;20.60;43.92
76054;BME280;64752;48.870;9.082;2022-11-15T08:48:55;97632.03;;;20.09;44.80
76054;BME280;64752;48.870;9.082;2022-11-15T08:51:20;97631.50;;;20.70;43.31
76054;BME280;64752;48.870;9.082;2022-11-15T08:53:46;97634.72;;;21.16;41.87
76054;BME280;64752;48.870;9.082;2022-11-15T08:56:13;97628.03;;;20.70;42.68
76054;BME280;64752;48.870;9.082;2022-11-15T08:58:39;97622.88;;;21.31;42.13
76054;BME280;64752;48.870;9.082;2022-11-15T09:01:04;97625.94;;;19.52;44.80
76054;BME280;64752;48.870;9.082;2022-11-15T09:03:30;97626.13;;;18.44;48.03
76054;BME280;64752;48.870;9.082;2022-11-15T09:05:57;97629.91;;;18.88;46.82
76054;BME280;64752;48.870;9.082;2022-11-15T09:08:23;97623.28;;;18.23;48.43
76054;BME280;64752;48.870;9.082;2022-11-15T09:10:48;97626.06;;;17.46;51.18
76054;BME280;64752;48.870;9.082;2022-11-15T09:13:14;97624.88;;;16.86;53.37
76054;BME280;64752;48.870;9.082;2022-11-15T09:15:39;97620.56;;;18.49;50.62
76054;BME280;64752;48.870;9.082;2022-11-15T09:18:05;97624.72;;;17.41;52.89
76054;BME280;64752;48.870;9.082;2022-11-15T09:20:30;97623.03;;;17.14;54.14
76054;BME280;64752;48.870;9.082;2022-11-15T09:23:03;97621.88;;;17.18;54.35
76054;BME280;64752;48.870;9.082;2022-11-15T09:25:29;97614.00;;;16.92;52.66
76054;BME280;64752;48.870;9.082;2022-11-15T09:27:55;97616.53;;;17.45;52.77
76054;BME280;64752;48.870;9.082;2022-11-15T09:30:21;97616.22;;;16.99;53.03
76054;BME280;64752;48.870;9.082;2022-11-15T09:32:47;97616.63;;;17.31;52.76
76054;BME280;64752;48.870;9.082;2022-11-15T09:35:12;97617.34;;;17.59;50.92
76054;BME280;64752;48.870;9.082;2022-11-15T09:37:38;97617.56;;;16.91;52.54
76054;BME280;64752;48.870;9.082;2022-11-15T09:40:04;97617.94;;;17.75;50.64
76054;BME280;64752;48.870;9.082;2022-11-15T09:50:31;97600.69;;;19.27;46.46
76054;BME280;64752;48.870;9.082;2022-11-15T09:52:56;97593.25;;;19.10;47.74
76054;BME280;64752;48.870;9.082;2022-11-15T09:55:32;97590.06;;;19.17;47.68
76054;BME280;64752;48.870;9.082;2022-11-15T09:58:20;97591.03;;;18.21;51.07
76054;BME280;64752;48.870;9.082;2022-11-15T10:00:48;97597.13;;;17.48;51.67
76054;BME280;64752;48.870;9.082;2022-11-15T10:03:25;97591.91;;;16.97;54.03
76054;BME280;64752;48.870;9.082;2022-11-15T10:05:54;97584.06;;;16.97;54.88
76054;BME280;64752;48.870;9.082;2022-11-15T10:08:25;97586.19;;;16.77;55.15
76054;BME280;64752;48.870;9.082;2022-11-15T10:11:10;97585.31;;;16.91;55.12
76054;BME280;64752;48.870;9.082;2022-11-15T10:13:41;97587.88;;;16.78;56.22
76054;BME280;64752;48.870;9.082;2022-11-15T10:21:54;97578.00;;;16.16;58.14
76054;BME280;64752;48.870;9.082;2022-11-15T10:24:25;97575.66;;;16.11;59.07
76054;BME280;64752;48.870;9.082;2022-11-15T10:26:54;97573.59;;;16.16;58.22
76054;BME280;64752;48.870;9.082;2022-11-15T10:29:21;97572.13;;;16.12;58.55
76054;BME280;64752;48.870;9.082;2022-11-15T10:31:47;97562.28;;;16.69;57.48
76054;BME280;64752;48.870;9.082;2022-11-15T10:34:15;97558.34;;;15.96;59.66
76054;BME280;64752;48.870;9.082;2022-11-15T10:36:56;97555.47;;;16.53;58.11
76054;BME280;64752;48.870;9.082;2022-11-15T10:39:22;97558.16;;;16.39;58.43
76054;BME280;64752;48.870;9.082;2022-11-15T10:41:48;97557.81;;;15.35;60.90
76054;BME280;64752;48.870;9.082;2022-11-15T10:46:44;97550.03;;;15.48;60.76
76054;BME280;64752;48.870;9.082;2022-11-15T10:49:18;97549.03;;;15.92;58.86
76054;BME280;64752;48.870;9.082;2022-11-15T10:51:49;97546.06;;;15.69;60.39
76054;BME280;64752;48.870;9.082;2022-11-15T10:54:23;97542.34;;;16.00;60.25
76054;BME280;64752;48.870;9.082;2022-11-15T10:56:54;97540.91;;;16.09;60.43
76054;BME280;64752;48.870;9.082;2022-11-15T10:59:28;97534.88;;;16.09;60.76
76054;BME280;64752;48.870;9.082;2022-11-15T11:01:54;97533.81;;;16.51;59.04
76054;BME280;64752;48.870;9.082;2022-11-15T11:04:20;97529.41;;;15.99;60.23
76054;BME280;64752;48.870;9.082;2022-11-15T11:06:54;97530.66;;;16.59;59.23
76054;BME280;64752;48.870;9.082;2022-11-15T11:11:56;97528.59;;;15.84;61.94
76054;BME280;64752;48.870;9.082;2022-11-15T11:14:23;97529.53;;;15.69;62.07
76054;BME280;64752;48.870;9.082;2022-11-15T11:17:00;97522.56;;;15.96;61.23
76054;BME280;64752;48.870;9.082;2022-11-15T11:22:34;97522.53;;;15.69;62.49
76054;BME280;64752;48.870;9.082;2022-11-15T11:30:17;97512.41;;;16.45;58.86
76054;BME280;64752;48.870;9.082;2022-11-15T11:32:50;97507.50;;;16.40;59.85
76054;BME280;64752;48.870;9.082;2022-11-15T11:35:32;97511.56;;;16.31;60.41
76054;BME280;64752;48.870;9.082;2022-11-15T11:38:22;97497.72;;;16.95;58.95
76054;BME280;64752;48.870;9.082;2022-11-15T11:44:18;97490.06;;;17.42;57.60
76054;BME280;64752;48.870;9.082;2022-11-15T11:47:14;97484.56;;;17.33;57.71
76054;BME280;64752;48.870;9.082;2022-11-15T11:55:39;97472.78;;;16.89;61.26
76054;BME280;64752;48.870;9.082;2022-11-15T11:58:19;97471.19;;;16.61;61.77
76054;BME280;64752;48.870;9.082;2022-11-15T12:00:54;97473.50;;;17.04;59.70
76054;BME280;64752;48.870;9.082;2022-11-15T12:08:59;97449.28;;;17.13;59.74
76054;BME280;64752;48.870;9.082;2022-11-15T12:11:37;97440.13;;;17.19;59.04
76054;BME280;64752;48.870;9.082;2022-11-15T12:14:25;97443.44;;;17.58;58.89
76054;BME280;64752;48.870;9.082;2022-11-15T12:16:52;97440.88;;;17.69;57.91
76054;BME280;64752;48.870;9.082;2022-11-15T12:19:17;97447.72;;;17.72;57.83
76054;BME280;64752;48.870;9.082;2022-11-15T12:24:17;97441.47;;;16.88;61.97
76054;BME280;64752;48.870;9.082;2022-11-15T12:26:51;97444.25;;;17.10;60.42
76054;BME280;64752;48.870;9.082;2022-11-15T12:31:51;97435.78;;;16.43;62.88
76054;BME280;64752;48.870;9.082;2022-11-15T12:36:46;97432.34;;;16.55;60.98
76054;BME280;64752;48.870;9.082;2022-11-15T12:39:13;97426.59;;;16.50;60.89
76054;BME280;64752;48.870;9.082;2022-11-15T12:41:44;97429.81;;;16.15;62.49
76054;BME280;64752;48.870;9.082;2022-11-15T13:02:31;97406.22;;;15.76;62.33
76054;BME280;64752;48.870;9.082;2022-11-15T13:17:54;97385.22;;;16.04;63.58
76054;BME280;64752;48.870;9.082;2022-11-15T13:20:27;97383.69;;;16.01;66.63
76054;BME280;64752;48.870;9.082;2022-11-15T13:23:12;97371.44;;;16.02;63.06
76054;BME280;64752;48.870;9.082;2022-11-15T13:26:14;97373.28;;;15.87;64.97
76054;BME280;64752;48.870;9.082;2022-11-15T13:28:48;97368.25;;;15.84;62.74
76054;BME280;64752;48.870;9.082;2022-11-15T13:31:30;97364.38;;;15.76;63.42
76054;BME280;64752;48.870;9.082;2022-11-15T13:34:03;97370.91;;;15.69;62.39
76054;BME280;64752;48.870;9.082;2022-11-15T13:36:38;97357.03;;;15.69;63.60
76054;BME280;64752;48.870;9.082;2022-11-15T13:39:12;97355.13;;;15.71;62.80
76054;BME280;64752;48.870;9.082;2022-11-15T13:41:47;97345.00;;;15.66;64.38
76054;BME280;64752;48.870;9.082;2022-11-15T13:44:27;97348.88;;;15.60;65.76
76054;BME280;64752;48.870;9.082;2022-11-15T13:47:09;97339.31;;;15.47;64.50
76054;BME280;64752;48.870;9.082;2022-11-15T13:49:37;97342.25;;;15.42;64.67
76054;BME280;64752;48.870;9.082;2022-11-15T13:52:06;97333.75;;;15.38;64.88
76054;BME280;64752;48.870;9.082;2022-11-15T13:54:43;97333.75;;;15.38;64.24
76054;BME280;64752;48.870;9.082;2022-11-15T13:57:15;97326.22;;;15.34;65.13
76054;BME280;64752;48.870;9.082;2022-11-15T13:59:47;97320.16;;;15.06;66.72
76054;BME280;64752;48.870;9.082;2022-11-15T14:02:19;97324.34;;;15.09;66.20
76054;BME280;64752;48.870;9.082;2022-11-15T14:04:54;97321.91;;;14.93;66.62
76054;BME280;64752;48.870;9.082;2022-11-15T14:07:23;97320.72;;;14.70;67.32
76054;BME280;64752;48.870;9.082;2022-11-15T14:09:49;97313.00;;;14.68;67.76
76054;BME280;64752;48.870;9.082;2022-11-15T14:12:34;97318.69;;;14.60;67.97
76054;BME280;64752;48.870;9.082;2022-11-15T14:15:18;97308.81;;;14.51;67.77
76054;BME280;64752;48.870;9.082;2022-11-15T14:17:44;97308.16;;;14.33;68.46
76054;BME280;64752;48.870;9.082;2022-11-15T14:20:34;97296.34;;;14.27;68.65
76054;BME280;64752;48.870;9.082;2022-11-15T14:23:05;97297.84;;;14.17;68.72
76054;BME280;64752;48.870;9.082;2022-11-15T14:25:34;97294.69;;;14.12;69.34
76054;BME280;64752;48.870;9.082;2022-11-15T14:28:15;97293.09;;;14.10;69.40
76054;BME280;64752;48.870;9.082;2022-11-15T14:30:43;97289.38;;;13.99;70.04
76054;BME280;64752;48.870;9.082;2022-11-15T14:33:22;97277.75;;;14.05;69.87
76054;BME280;64752;48.870;9.082;2022-11-15T14:35:47;97277.19;;;14.00;70.00
76054;BME280;64752;48.870;9.082;2022-11-15T14:38:13;97276.16;;;14.02;70.29
76054;BME280;64752;48.870;9.082;2022-11-15T14:40:39;97274.56;;;14.00;70.11
76054;BME280;64752;48.870;9.082;2022-11-15T14:43:04;97266.00;;;13.98;70.28
76054;BME280;64752;48.870;9.082;2022-11-15T14:45:30;97256.78;;;13.92;70.44
76054;BME280;64752;48.870;9.082;2022-11-15T14:47:55;97259.31;;;13.94;70.95
76054;BME280;64752;48.870;9.082;2022-11-15T14:50:21;97259.56;;;13.89;70.51
76054;BME280;64752;48.870;9.082;2022-11-15T14:52:48;97256.13;;;13.88;70.31
76054;BME280;64752;48.870;9.082;2022-11-15T14:55:20;97254.66;;;13.84;72.05
76054;BME280;64752;48.870;9.082;2022-11-15T14:57:46;97248.13;;;13.77;70.76
76054;BME280;64752;48.870;9.082;2022-11-15T15:00:12;97254.34;;;13.75;70.78
76054;BME280;64752;48.870;9.082;2022-11-15T15:02:38;97249.34;;;13.72;71.20
76054;BME280;64752;48.870;9.082;2022-11-15T15:05:16;97244.41;;;13.67;71.94
76054;BME280;64752;48.870;9.082;2022-11-15T15:07:41;97243.28;;;13.57;72.10
76054;BME280;64752;48.870;9.082;2022-11-15T15:10:08;97236.69;;;13.51;72.34
76054;BME280;64752;48.870;9.082;2022-11-15T15:12:33;97227.63;;;13.42;72.66
76054;BME280;64752;48.870;9.082;2022-11-15T15:14:58;97228.75;;;13.38;72.73
76054;BME280;64752;48.870;9.082;2022-11-15T15:17:24;97220.59;;;13.28;73.31
76054;BME280;64752;48.870;9.082;2022-11-15T15:19:49;97212.97;;;13.25;73.22
76054;BME280;64752;48.870;9.082;2022-11-15T15:22:17;97210.63;;;13.21;73.29
76054;BME280;64752;48.870;9.082;2022-11-15T15:24:44;97209.41;;;13.12;73.52
76054;BME280;64752;48.870;9.082;2022-11-15T15:27:10;97206.72;;;13.14;73.47
76054;BME280;64752;48.870;9.082;2022-11-15T15:29:35;97201.78;;;13.09;73.67
76054;BME280;64752;48.870;9.082;2022-11-15T15:32:04;97205.75;;;13.00;74.21
76054;BME280;64752;48.870;9.082;2022-11-15T15:34:29;97201.75;;;12.95;74.24